createdAt,value
2018-10-11T00:01:54.535Z,46294.78
2018-10-11T00:03:59.471Z,46274.46
2018-10-11T00:06:04.538Z,46300.59
2018-10-11T00:08:09.920Z,46288.97
2018-10-11T00:10:14.884Z,46288.01
2018-10-11T00:12:20.250Z,46289.94
2018-10-11T00:14:25.358Z,46289.94
2018-10-11T00:16:30.586Z,46280.27
2018-10-11T00:18:36.101Z,46285.10
2018-10-11T00:20:41.467Z,46293.81
2018-10-11T00:22:46.739Z,46286.07
2018-10-11T00:24:52.051Z,46300.59
2018-10-11T00:26:57.413Z,46287.04
2018-10-11T00:29:02.743Z,46277.36
2018-10-11T00:31:07.644Z,46285.10
2018-10-11T00:33:12.920Z,46294.78
2018-10-11T00:35:18.021Z,46296.72
2018-10-11T00:37:22.977Z,46269.62
2018-10-11T00:39:27.869Z,46277.36
2018-10-11T00:41:32.967Z,46284.14
2018-10-11T00:43:38.150Z,46299.62
2018-10-11T00:45:43.020Z,46270.59
2018-10-11T00:47:47.983Z,46275.43
2018-10-11T00:49:52.837Z,46267.68
2018-10-11T00:51:57.843Z,46284.14
2018-10-11T00:54:02.952Z,46264.78
2018-10-11T00:56:08.259Z,46285.10
2018-10-11T00:58:13.359Z,46274.46
2018-10-11T01:00:18.417Z,46274.46
2018-10-11T01:02:23.450Z,46302.52
2018-10-11T01:04:28.407Z,46279.30
2018-10-11T01:06:33.526Z,46272.52
2018-10-11T01:08:38.951Z,46282.20
2018-10-11T01:10:44.265Z,46286.07
2018-10-11T01:12:49.563Z,46273.49
2018-10-11T01:14:54.880Z,46277.36
2018-10-11T01:17:00.466Z,46272.52
2018-10-11T01:19:05.514Z,46273.49
2018-10-11T01:21:10.844Z,46273.49
2018-10-11T01:23:16.300Z,46300.59
2018-10-11T01:25:21.262Z,46302.52
2018-10-11T01:27:26.539Z,46292.84
2018-10-11T01:29:31.296Z,46277.36
2018-10-11T01:31:36.411Z,46277.36
2018-10-11T01:33:41.384Z,46268.65
2018-10-11T01:35:46.428Z,46274.46
2018-10-11T01:37:51.510Z,46294.78
2018-10-11T01:39:56.510Z,46273.49
2018-10-11T01:42:01.493Z,46290.91
2018-10-11T01:44:06.271Z,46282.20
2018-10-11T01:46:11.029Z,46264.78
2018-10-11T01:48:15.763Z,46283.17
2018-10-11T01:50:20.595Z,46266.71
2018-10-11T01:52:25.640Z,46268.65
2018-10-11T01:54:30.383Z,46255.10
2018-10-11T01:56:35.311Z,46283.17
2018-10-11T01:58:40.218Z,46274.46
2018-10-11T02:00:45.158Z,46287.04
2018-10-11T02:02:49.897Z,46266.71
2018-10-11T02:04:54.893Z,46277.36
2018-10-11T02:07:00.043Z,46275.43
2018-10-11T02:09:06.025Z,46260.91
2018-10-11T02:11:11.011Z,46284.14
2018-10-11T02:13:15.953Z,46287.04
2018-10-11T02:15:21.106Z,46268.65
2018-10-11T02:17:25.936Z,46282.20
2018-10-11T02:19:31.217Z,46260.91
2018-10-11T02:21:36.121Z,46270.59
2018-10-11T02:23:40.976Z,46266.71
2018-10-11T02:25:46.016Z,46279.30
2018-10-11T02:27:50.904Z,46272.52
2018-10-11T02:29:55.938Z,46240.59
2018-10-11T02:32:00.805Z,46273.49
2018-10-11T02:34:05.745Z,46271.55
2018-10-11T02:36:10.534Z,46264.78
2018-10-11T02:38:15.329Z,46268.65
2018-10-11T02:40:20.506Z,46274.46
2018-10-11T02:42:25.963Z,46251.23
2018-10-11T02:44:30.798Z,46272.52
2018-10-11T02:46:35.686Z,46255.10
2018-10-11T02:48:40.550Z,46287.04
2018-10-11T02:50:45.255Z,46275.43
2018-10-11T02:52:49.984Z,46294.78
2018-10-11T02:54:54.995Z,46274.46
2018-10-11T02:57:04.716Z,46264.78
2018-10-11T02:59:27.502Z,46264.78
2018-10-11T03:01:32.434Z,46266.71
2018-10-11T03:03:37.455Z,46256.07
2018-10-11T03:05:44.365Z,46276.39
2018-10-11T03:07:49.335Z,46263.81
2018-10-11T03:09:54.476Z,46248.33
2018-10-11T03:11:59.848Z,46246.39
2018-10-11T03:14:04.759Z,46261.87
2018-10-11T03:16:10.024Z,46246.39
2018-10-11T03:18:15.494Z,46249.30
2018-10-11T03:20:20.527Z,46258.97
2018-10-11T03:22:25.458Z,46255.10
2018-10-11T03:24:30.815Z,46265.75
2018-10-11T03:26:35.865Z,46267.68
2018-10-11T03:28:40.913Z,46266.71
2018-10-11T03:30:45.770Z,46261.87
2018-10-11T03:32:50.568Z,46266.71
2018-10-11T03:34:55.607Z,46263.81
2018-10-11T03:37:00.622Z,46262.84
2018-10-11T03:39:06.627Z,46248.33
2018-10-11T03:41:11.374Z,46251.23
2018-10-11T03:43:16.139Z,46253.17
2018-10-11T03:45:20.997Z,46257.04
2018-10-11T03:47:25.789Z,46270.59
2018-10-11T03:49:30.536Z,46247.36
2018-10-11T03:51:35.277Z,46244.46
2018-10-11T03:53:40.021Z,46248.33
2018-10-11T03:55:44.831Z,46255.10
2018-10-11T03:57:49.754Z,46261.87
2018-10-11T03:59:54.656Z,46265.75
2018-10-11T04:01:59.466Z,46255.10
2018-10-11T04:04:04.165Z,46244.46
2018-10-11T04:06:08.963Z,46244.46
2018-10-11T04:08:13.880Z,46263.81
2018-10-11T04:10:18.694Z,46261.87
2018-10-11T04:12:23.835Z,46245.43
2018-10-11T04:14:28.682Z,46263.81
2018-10-11T04:16:33.803Z,46275.43
2018-10-11T04:18:38.716Z,46271.55
2018-10-11T04:20:44.049Z,46272.52
2018-10-11T04:22:49.193Z,46258.97
2018-10-11T04:24:54.322Z,46245.43
2018-10-11T04:26:59.479Z,46243.49
2018-10-11T04:29:04.516Z,46265.75
2018-10-11T04:31:09.345Z,46280.27
2018-10-11T04:33:14.352Z,46257.04
2018-10-11T04:35:19.583Z,46258.01
2018-10-11T04:37:24.980Z,46264.78
2018-10-11T04:39:30.025Z,46262.84
2018-10-11T04:41:35.078Z,46253.17
2018-10-11T04:43:40.413Z,46259.94
2018-10-11T04:45:45.614Z,46258.97
2018-10-11T04:47:50.734Z,46258.01
2018-10-11T04:49:55.768Z,46275.43
2018-10-11T04:52:00.969Z,46258.97
2018-10-11T04:54:06.047Z,46275.43
2018-10-11T04:56:11.170Z,46281.23
2018-10-11T04:58:16.301Z,46263.81
2018-10-11T05:00:21.184Z,46245.43
2018-10-11T05:02:26.179Z,46243.49
2018-10-11T05:04:31.027Z,46258.01
2018-10-11T05:06:35.900Z,46261.87
2018-10-11T05:08:40.826Z,46273.49
2018-10-11T05:10:45.962Z,46261.87
2018-10-11T05:12:50.970Z,46252.20
2018-10-11T05:14:56.463Z,46258.97
2018-10-11T05:17:01.290Z,46255.10
2018-10-11T05:19:06.591Z,46249.30
2018-10-11T05:21:11.481Z,46254.14
2018-10-11T05:23:16.220Z,46247.36
2018-10-11T05:25:20.999Z,46246.39
2018-10-11T05:27:25.751Z,46258.97
2018-10-11T05:29:30.833Z,46264.78
2018-10-11T05:31:36.162Z,46252.20
2018-10-11T05:33:42.074Z,46255.10
2018-10-11T05:35:46.862Z,46257.04
2018-10-11T05:37:51.848Z,46261.87
2018-10-11T05:39:56.762Z,46250.26
2018-10-11T05:42:01.724Z,46260.91
2018-10-11T05:44:06.963Z,46259.94
2018-10-11T05:46:23.145Z,46254.14
2018-10-11T05:48:30.231Z,46247.36
2018-10-11T05:50:35.049Z,46262.84
2018-10-11T05:52:40.159Z,46251.23
2018-10-11T05:54:45.499Z,46216.39
2018-10-11T05:56:51.063Z,46237.68
2018-10-11T05:58:56.147Z,46244.46
2018-10-11T06:01:01.059Z,46263.81
2018-10-11T06:03:06.275Z,46266.71
2018-10-11T06:05:11.844Z,46290.91
2018-10-11T06:07:16.733Z,46244.46
2018-10-11T06:09:21.643Z,46250.26
2018-10-11T06:11:26.490Z,46273.49
2018-10-11T06:13:31.386Z,46259.94
2018-10-11T06:15:36.574Z,46233.81
2018-10-11T06:17:42.603Z,46257.04
2018-10-11T06:19:48.881Z,46240.59
2018-10-11T06:21:53.993Z,46227.04
2018-10-11T06:23:59.352Z,46263.81
2018-10-11T06:26:04.298Z,46267.68
2018-10-11T06:28:09.830Z,46262.84
2018-10-11T06:30:15.414Z,46264.78
2018-10-11T06:32:20.435Z,46248.33
2018-10-11T06:34:26.261Z,46268.65
2018-10-11T06:36:31.993Z,46265.75
2018-10-11T06:38:37.204Z,46253.17
2018-10-11T06:40:42.189Z,46254.14
2018-10-11T06:42:47.171Z,46258.97
2018-10-11T06:44:52.003Z,46255.10
2018-10-11T06:46:57.215Z,46268.65
2018-10-11T06:49:02.146Z,46257.04
2018-10-11T06:51:07.207Z,46259.94
2018-10-11T06:53:12.121Z,46285.10
2018-10-11T06:55:17.201Z,46249.30
2018-10-11T06:57:21.970Z,46252.20
2018-10-11T06:59:26.921Z,46270.59
2018-10-11T07:01:31.932Z,46268.65
2018-10-11T07:03:36.757Z,46282.20
2018-10-11T07:05:41.774Z,46263.81
2018-10-11T07:07:46.684Z,46259.94
2018-10-11T07:09:51.388Z,46274.46
2018-10-11T07:11:56.656Z,46260.91
2018-10-11T07:14:01.452Z,46270.59
2018-10-11T07:16:06.360Z,46285.10
2018-10-11T07:18:11.312Z,46277.36
2018-10-11T07:20:16.342Z,46260.91
2018-10-11T07:22:21.390Z,46265.75
2018-10-11T07:24:26.476Z,46281.23
2018-10-11T07:26:31.319Z,46293.81
2018-10-11T07:28:36.407Z,46279.30
2018-10-11T07:30:41.627Z,46265.75
2018-10-11T07:32:46.266Z,46298.65
2018-10-11T07:34:51.282Z,46295.75
2018-10-11T07:36:56.092Z,46287.04
2018-10-11T07:39:00.876Z,46287.04
2018-10-11T07:41:05.880Z,46265.75
2018-10-11T07:43:10.918Z,46275.43
2018-10-11T07:45:18.051Z,46272.52
2018-10-11T07:47:22.937Z,46288.01
2018-10-11T07:49:27.809Z,46280.27
2018-10-11T07:51:32.903Z,46283.17
2018-10-11T07:53:37.651Z,46290.91
2018-10-11T07:55:42.655Z,46286.07
2018-10-11T07:57:47.698Z,46288.01
2018-10-11T07:59:52.415Z,46302.52
2018-10-11T08:01:57.724Z,46288.97
2018-10-11T08:04:02.835Z,46258.97
2018-10-11T08:06:08.045Z,46292.84
2018-10-11T08:08:13.006Z,46283.17
2018-10-11T08:10:17.794Z,46299.62
2018-10-11T08:12:22.971Z,46297.68
2018-10-11T08:14:28.095Z,46146.71
2018-10-11T08:16:33.198Z,46305.43
2018-10-11T08:18:38.165Z,46295.75
2018-10-11T08:20:43.188Z,46316.07
2018-10-11T08:22:48.250Z,46289.94
2018-10-11T08:24:53.445Z,46299.62
2018-10-11T08:26:58.338Z,46313.17
2018-10-11T08:29:03.243Z,46339.30
2018-10-11T08:31:08.704Z,46312.20
2018-10-11T08:33:13.657Z,46318.01
2018-10-11T08:35:18.733Z,46316.07
2018-10-11T08:37:23.664Z,46321.88
2018-10-11T08:39:29.275Z,46323.81
2018-10-11T08:41:34.304Z,46303.49
2018-10-11T08:43:39.427Z,46309.30
2018-10-11T08:45:44.301Z,46323.81
2018-10-11T08:47:49.406Z,46309.30
2018-10-11T08:49:54.800Z,46322.85
2018-10-11T08:51:59.832Z,46322.85
2018-10-11T08:54:09.853Z,46321.88
2018-10-11T08:56:15.020Z,46325.75
2018-10-11T08:58:20.386Z,46328.65
2018-10-11T09:00:25.521Z,46322.85
2018-10-11T09:02:30.837Z,46325.75
2018-10-11T09:04:36.036Z,46325.75
2018-10-11T09:06:41.081Z,46319.94
2018-10-11T09:08:46.233Z,46342.20
2018-10-11T09:10:51.622Z,46324.78
2018-10-11T09:12:56.668Z,46333.49
2018-10-11T09:15:01.627Z,46343.17
2018-10-11T09:17:06.847Z,46347.04
2018-10-11T09:19:11.987Z,46326.72
2018-10-11T09:21:17.238Z,46349.94
2018-10-11T09:23:22.470Z,46343.17
2018-10-11T09:25:27.507Z,46347.04
2018-10-11T09:27:32.589Z,46336.39
2018-10-11T09:29:37.653Z,46328.65
2018-10-11T09:31:42.638Z,46352.85
2018-10-11T09:33:47.661Z,46354.79
2018-10-11T09:35:52.826Z,46332.52
2018-10-11T09:37:57.897Z,46336.39
2018-10-11T09:40:02.774Z,46331.55
2018-10-11T09:42:07.822Z,46357.69
2018-10-11T09:44:12.820Z,46354.79
2018-10-11T09:46:17.578Z,46349.94
2018-10-11T09:48:22.721Z,46359.62
2018-10-11T09:50:27.560Z,46363.49
2018-10-11T09:52:32.469Z,46356.72
2018-10-11T09:54:37.376Z,46356.72
2018-10-11T09:57:44.679Z,46383.82
2018-10-11T09:59:49.853Z,46350.91
2018-10-11T10:01:54.796Z,46354.79
2018-10-11T10:04:00.037Z,46362.52
2018-10-11T10:06:05.193Z,46373.17
2018-10-11T10:08:10.552Z,46347.04
2018-10-11T10:10:15.685Z,46368.33
2018-10-11T10:12:21.568Z,46369.30
2018-10-11T10:14:26.547Z,46355.75
2018-10-11T10:16:31.786Z,46381.88
2018-10-11T10:18:36.890Z,46392.53
2018-10-11T10:20:42.326Z,46360.59
2018-10-11T10:22:47.560Z,46364.46
2018-10-11T10:24:52.555Z,46362.52
2018-10-11T10:26:57.680Z,46382.85
2018-10-11T10:29:02.713Z,46396.40
2018-10-11T10:31:08.117Z,46380.91
2018-10-11T10:33:13.301Z,46376.07
2018-10-11T10:35:18.360Z,46391.56
2018-10-11T10:37:23.810Z,46389.62
2018-10-11T10:39:28.625Z,46392.53
2018-10-11T10:41:33.696Z,46397.36
2018-10-11T10:43:38.838Z,46372.20
2018-10-11T10:45:43.937Z,46406.07
2018-10-11T10:47:49.714Z,46391.56
2018-10-11T10:49:54.874Z,46407.04
2018-10-11T10:51:59.926Z,46415.75
2018-10-11T10:54:09.140Z,46386.72
2018-10-11T10:56:13.861Z,46399.30
2018-10-11T10:58:18.734Z,46406.07
2018-10-11T11:00:23.964Z,46384.79
2018-10-11T11:02:29.101Z,46408.98
2018-10-11T11:04:33.898Z,46412.85
2018-10-11T11:06:38.886Z,46401.24
2018-10-11T11:08:44.011Z,46396.40
2018-10-11T11:10:48.846Z,46417.69
2018-10-11T11:12:53.586Z,46410.91
2018-10-11T11:14:58.466Z,46405.11
2018-10-11T11:17:03.418Z,46396.40
2018-10-11T11:26:43.435Z,46424.46
2018-10-11T11:28:48.099Z,46436.08
2018-10-11T11:30:52.888Z,46428.34
2018-10-11T11:32:57.535Z,46418.66
2018-10-11T11:35:02.186Z,46405.11
2018-10-11T11:37:19.198Z,46408.01
2018-10-11T11:39:23.898Z,46420.59
2018-10-11T11:41:28.565Z,46430.27
2018-10-11T11:43:33.365Z,46433.18
2018-10-11T11:45:38.211Z,46433.18
2018-10-11T11:47:42.914Z,46432.21
2018-10-11T11:49:47.702Z,46433.18
2018-10-11T11:51:52.386Z,46419.62
2018-10-11T11:53:57.068Z,46429.30
2018-10-11T11:56:01.817Z,46438.01
2018-10-11T11:58:06.659Z,46418.66
2018-10-11T12:00:11.993Z,46423.50
2018-10-11T12:02:16.895Z,46424.46
2018-10-11T12:04:21.587Z,46428.34
2018-10-11T12:06:26.251Z,46429.30
2018-10-11T12:08:32.105Z,46433.18
2018-10-11T12:10:36.846Z,46430.27
2018-10-11T12:13:01.184Z,46438.01
2018-10-11T12:15:06.122Z,46429.30
2018-10-11T12:17:10.809Z,46437.05
2018-10-11T12:19:15.618Z,46442.85
2018-10-11T12:21:20.392Z,46421.56
2018-10-11T12:23:25.181Z,46425.43
2018-10-11T12:25:30.271Z,46444.79
2018-10-11T12:27:35.255Z,46421.56
2018-10-11T12:29:39.948Z,46428.34
2018-10-11T12:31:44.737Z,46424.46
2018-10-11T12:33:49.998Z,46420.59
2018-10-11T12:35:55.001Z,46432.21
2018-10-11T12:37:59.766Z,46428.34
2018-10-11T12:40:04.771Z,46437.05
2018-10-11T12:42:09.729Z,46418.66
2018-10-11T12:44:14.673Z,46419.62
2018-10-11T12:46:19.530Z,46438.98
2018-10-11T12:48:24.227Z,46426.40
2018-10-11T12:50:29.187Z,46423.50
2018-10-11T12:52:34.263Z,46425.43
2018-10-11T12:54:38.991Z,46430.27
2018-10-11T12:56:43.779Z,46414.79
2018-10-11T12:58:48.433Z,46417.69
2018-10-11T13:00:53.105Z,46420.59
2018-10-11T13:02:57.803Z,46414.79
2018-10-11T13:05:02.717Z,46425.43
2018-10-11T13:07:07.477Z,46426.40
2018-10-11T13:09:12.361Z,46441.88
2018-10-11T13:11:17.116Z,46431.24
2018-10-11T13:13:21.807Z,46424.46
2018-10-11T13:15:26.647Z,46420.59
2018-10-11T13:17:35.283Z,46431.24
2018-10-11T13:19:36.241Z,46431.24
2018-10-11T13:21:40.958Z,46406.07
2018-10-11T13:23:45.825Z,46393.49
2018-10-11T13:25:50.695Z,46428.34
2018-10-11T13:27:55.530Z,46431.24
2018-10-11T13:30:00.259Z,46412.85
2018-10-11T13:32:04.905Z,46398.33
2018-10-11T13:34:10.131Z,46420.59
2018-10-11T13:36:14.887Z,46422.53
2018-10-11T13:38:19.498Z,46420.59
2018-10-11T13:40:24.154Z,46436.08
2018-10-11T13:42:28.974Z,46433.18
2018-10-11T13:44:33.881Z,46433.18
2018-10-11T13:46:38.541Z,46434.14
2018-10-11T13:48:43.210Z,46416.72
2018-10-11T13:50:48.029Z,46431.24
2018-10-11T13:52:53.013Z,46432.21
2018-10-11T13:54:57.867Z,46409.95
2018-10-11T13:57:03.381Z,46412.85
2018-10-11T13:59:11.841Z,46432.21
2018-10-11T14:01:12.467Z,46420.59
2018-10-11T14:03:17.117Z,46435.11
2018-10-11T14:05:21.781Z,46411.88
2018-10-11T14:07:26.682Z,46411.88
2018-10-11T14:09:31.336Z,46419.62
2018-10-11T14:11:35.967Z,46423.50
2018-10-11T14:13:41.005Z,46420.59
2018-10-11T14:15:45.672Z,46422.53
2018-10-11T14:17:50.589Z,46416.72
2018-10-11T14:19:55.548Z,46406.07
2018-10-11T14:22:00.285Z,46408.01
2018-10-11T14:24:05.420Z,46410.91
2018-10-11T14:26:10.383Z,46433.18
2018-10-11T14:28:15.137Z,46433.18
2018-10-11T14:30:19.858Z,46423.50
2018-10-11T14:32:24.653Z,46413.82
2018-10-11T14:34:29.332Z,46416.72
2018-10-11T14:36:34.130Z,46423.50
2018-10-11T14:38:38.827Z,46426.40
2018-10-11T14:40:43.532Z,46418.66
2018-10-11T14:42:48.432Z,46429.30
2018-10-11T14:44:53.165Z,46424.46
2018-10-11T14:46:57.862Z,46439.95
2018-10-11T14:49:02.797Z,46432.21
2018-10-11T14:51:08.280Z,46432.21
2018-10-11T14:53:12.965Z,46447.69
2018-10-11T14:55:17.714Z,46422.53
2018-10-11T14:57:22.517Z,46445.75
2018-10-11T14:59:27.322Z,46416.72
2018-10-11T15:01:32.212Z,46425.43
2018-10-11T15:03:37.043Z,46438.01
2018-10-11T15:05:41.733Z,46435.11
2018-10-11T15:07:46.335Z,46435.11
2018-10-11T15:09:51.112Z,46434.14
2018-10-11T15:11:55.950Z,46426.40
2018-10-11T15:14:00.807Z,46413.82
2018-10-11T15:16:05.719Z,46429.30
2018-10-11T15:18:10.671Z,46427.37
2018-10-11T15:20:15.508Z,46403.17
2018-10-11T15:22:20.330Z,46424.46
2018-10-11T15:24:25.123Z,46419.62
2018-10-11T15:26:29.948Z,46414.79
2018-10-11T15:28:34.793Z,46414.79
2018-10-11T15:30:39.646Z,46422.53
2018-10-11T15:32:44.743Z,46407.04
2018-10-11T15:34:49.708Z,46410.91
2018-10-11T15:36:54.496Z,46409.95
2018-10-11T15:38:59.199Z,46417.69
2018-10-11T15:41:03.890Z,46417.69
2018-10-11T15:43:09.154Z,46417.69
2018-10-11T15:45:14.100Z,46402.21
2018-10-11T15:47:19.124Z,46399.30
2018-10-11T15:49:23.899Z,46407.04
2018-10-11T15:51:28.731Z,46403.17
2018-10-11T15:53:33.467Z,46420.59
2018-10-11T15:55:38.214Z,46413.82
2018-10-11T15:57:42.956Z,46413.82
2018-10-11T15:59:47.706Z,46397.36
2018-10-11T16:01:52.670Z,46421.56
2018-10-11T16:03:57.589Z,46396.40
2018-10-11T16:06:02.400Z,46405.11
2018-10-11T16:08:07.726Z,46363.49
2018-10-11T16:10:12.469Z,46392.53
2018-10-11T16:12:17.203Z,46417.69
2018-10-11T16:14:21.931Z,46415.75
2018-10-11T16:16:26.597Z,46408.98
2018-10-11T16:18:31.474Z,46408.01
2018-10-11T16:20:36.265Z,46411.88
2018-10-11T16:22:41.086Z,46415.75
2018-10-11T16:24:45.926Z,46399.30
2018-10-11T16:26:50.672Z,46404.14
2018-10-11T16:28:55.423Z,46391.56
2018-10-11T16:31:00.253Z,46408.01
2018-10-11T16:33:05.428Z,46383.82
2018-10-11T16:35:10.233Z,46402.21
2018-10-11T16:37:17.116Z,46407.04
2018-10-11T16:39:21.825Z,46421.56
2018-10-11T16:41:26.658Z,46413.82
2018-10-11T16:43:31.590Z,46390.59
2018-10-11T16:45:36.463Z,46389.62
2018-10-11T16:47:41.123Z,46388.66
2018-10-11T16:49:46.062Z,46396.40
2018-10-11T16:51:50.826Z,46386.72
2018-10-11T16:53:55.624Z,46399.30
2018-10-11T16:56:00.489Z,46383.82
2018-10-11T16:58:05.401Z,46392.53
2018-10-11T17:00:10.579Z,46376.07
2018-10-11T17:02:15.670Z,46397.36
2018-10-11T17:04:21.161Z,46383.82
2018-10-11T17:06:26.055Z,46379.95
2018-10-11T17:08:31.442Z,46374.14
2018-10-11T17:10:36.177Z,46376.07
2018-10-11T17:12:40.900Z,46377.04
2018-10-11T17:14:45.778Z,46391.56
2018-10-11T17:16:50.680Z,46381.88
2018-10-11T17:18:55.499Z,46368.33
2018-10-11T17:21:01.853Z,46368.33
2018-10-11T17:23:07.122Z,46375.11
2018-10-11T17:25:12.304Z,46384.79
2018-10-11T17:27:17.202Z,46376.07
2018-10-11T17:29:22.471Z,46376.07
2018-10-11T17:31:27.228Z,46366.39
2018-10-11T17:33:32.149Z,46386.72
2018-10-11T17:35:37.078Z,46374.14
2018-10-11T17:37:42.389Z,46370.27
2018-10-11T17:39:47.326Z,46349.94
2018-10-11T17:41:52.435Z,46361.56
2018-10-11T17:43:57.343Z,46378.98
2018-10-11T17:46:02.296Z,46381.88
2018-10-11T17:48:07.473Z,46385.75
2018-10-11T17:50:13.389Z,46368.33
2018-10-11T17:52:18.738Z,46387.69
2018-10-11T17:54:23.597Z,46367.36
2018-10-11T17:56:28.533Z,46387.69
2018-10-11T17:58:33.542Z,46383.82
2018-10-11T18:00:38.376Z,46359.62
2018-10-11T18:02:43.244Z,46354.79
2018-10-11T18:04:48.305Z,46367.36
2018-10-11T18:06:53.220Z,46363.49
2018-10-11T18:08:58.415Z,46352.85
2018-10-11T18:11:03.326Z,46361.56
2018-10-11T18:13:08.578Z,46365.43
2018-10-11T18:15:22.425Z,46352.85
2018-10-11T18:17:27.996Z,46373.17
2018-10-11T18:19:33.638Z,46356.72
2018-10-11T18:21:38.953Z,46341.23
2018-10-11T18:23:44.803Z,46348.98
2018-10-11T18:25:50.564Z,46358.65
2018-10-11T18:27:55.938Z,46355.75
2018-10-11T18:30:01.428Z,46359.62
2018-10-11T18:32:09.445Z,46348.98
2018-10-11T18:34:14.693Z,46358.65
2018-10-11T18:36:19.838Z,46360.59
2018-10-11T18:38:24.879Z,46368.33
2018-10-11T18:40:30.551Z,46339.30
2018-10-11T18:42:35.612Z,46357.69
2018-10-11T18:44:41.098Z,46345.11
2018-10-11T18:46:46.164Z,46337.36
2018-10-11T18:48:51.252Z,46358.65
2018-10-11T18:51:00.539Z,46349.94
2018-10-11T18:53:05.877Z,46352.85
2018-10-11T18:55:10.849Z,46350.91
2018-10-11T18:57:16.515Z,46356.72
2018-10-11T18:59:24.359Z,46368.33
2018-10-11T19:01:29.580Z,46350.91
2018-10-11T19:03:34.497Z,46348.98
2018-10-11T19:05:40.139Z,46349.94
2018-10-11T19:07:48.143Z,46346.07
2018-10-11T19:09:54.151Z,46340.27
2018-10-11T19:12:03.255Z,46337.36
2018-10-11T19:14:09.490Z,46347.04
2018-10-11T19:16:15.395Z,46337.36
2018-10-11T19:18:21.338Z,46350.91
2018-10-11T19:20:28.132Z,46336.39
2018-10-11T19:22:36.648Z,46331.55
2018-10-11T19:24:43.174Z,46344.14
2018-10-11T19:26:48.634Z,46356.72
2018-10-11T19:28:57.136Z,46332.52
2018-10-11T19:31:02.770Z,46332.52
2018-10-11T19:33:09.069Z,46338.33
2018-10-11T19:35:14.225Z,46341.23
2018-10-11T19:37:19.401Z,46327.68
2018-10-11T19:39:25.658Z,46324.78
2018-10-11T19:41:32.578Z,46327.68
2018-10-11T19:43:37.708Z,46326.72
2018-10-11T19:45:47.392Z,46341.23
2018-10-11T19:47:56.795Z,46332.52
2018-10-11T19:50:02.372Z,46348.98
2018-10-11T19:52:07.471Z,46344.14
2018-10-11T19:54:12.633Z,46328.65
2018-10-11T19:56:18.170Z,46334.46
2018-10-11T19:58:24.686Z,46337.36
2018-10-11T20:00:33.593Z,46324.78
2018-10-11T20:02:40.003Z,46340.27
2018-10-11T20:04:45.087Z,46315.11
2018-10-11T20:06:50.376Z,46357.69
2018-10-11T20:08:55.834Z,46336.39
2018-10-11T20:11:03.217Z,46331.55
2018-10-11T20:13:10.400Z,46337.36
2018-10-11T20:15:17.015Z,46351.88
2018-10-11T20:17:22.653Z,46340.27
2018-10-11T20:19:28.201Z,46352.85
2018-10-11T20:21:33.671Z,46325.75
2018-10-11T20:23:38.704Z,46318.01
2018-10-11T20:25:45.406Z,46333.49
2018-10-11T20:27:52.568Z,46315.11
2018-10-11T20:30:00.652Z,46322.85
2018-10-11T20:32:07.129Z,46330.59
2018-10-11T20:34:12.526Z,46324.78
2018-10-11T20:36:18.688Z,46332.52
2018-10-11T20:38:25.459Z,46319.94
2018-10-11T20:40:33.359Z,46316.07
2018-10-11T20:42:40.045Z,46358.65
2018-10-11T20:44:45.419Z,46337.36
2018-10-11T20:46:50.942Z,46342.20
2018-10-11T20:48:57.203Z,46335.43
2018-10-11T20:51:02.341Z,46323.81
2018-10-11T20:53:07.614Z,46330.59
2018-10-11T20:55:12.998Z,46324.78
2018-10-11T20:57:18.585Z,46319.94
2018-10-11T20:59:24.274Z,46336.39
2018-10-11T21:01:29.304Z,46312.20
2018-10-11T21:03:34.511Z,46325.75
2018-10-11T21:05:40.338Z,46321.88
2018-10-11T21:07:45.488Z,46333.49
2018-10-11T21:09:51.344Z,46321.88
2018-10-11T21:11:56.577Z,46300.59
2018-10-11T21:14:01.901Z,46336.39
2018-10-11T21:16:07.401Z,46322.85
2018-10-11T21:18:12.561Z,46318.97
2018-10-11T21:20:18.517Z,46332.52
2018-10-11T21:22:24.361Z,46321.88
2018-10-11T21:24:30.010Z,46293.81
2018-10-11T21:26:34.946Z,46318.01
2018-10-11T21:28:40.044Z,46327.68
2018-10-11T21:30:45.624Z,46318.01
2018-10-11T21:32:50.716Z,46310.27
2018-10-11T21:34:55.712Z,46321.88
2018-10-11T21:37:00.603Z,46324.78
2018-10-11T21:39:09.850Z,46313.17
2018-10-11T21:41:14.642Z,46330.59
2018-10-11T21:43:19.639Z,46324.78
2018-10-11T21:45:25.142Z,46311.23
2018-10-11T21:47:30.005Z,46318.97
2018-10-11T21:49:36.034Z,46306.39
2018-10-11T21:51:41.711Z,46330.59
2018-10-11T21:53:46.528Z,46304.46
2018-10-11T21:55:51.213Z,46310.27
2018-10-11T21:57:56.031Z,46339.30
2018-10-11T22:00:00.712Z,46311.23
2018-10-11T22:02:05.598Z,46323.81
2018-10-11T22:04:10.569Z,46319.94
2018-10-11T22:06:15.392Z,46307.36
2018-10-11T22:08:20.900Z,46324.78
2018-10-11T22:10:25.824Z,46317.04
2018-10-11T22:12:30.701Z,46319.94
2018-10-11T22:14:35.878Z,46322.85
2018-10-11T22:16:40.650Z,46278.33
2018-10-11T22:18:45.385Z,46325.75
2018-10-11T22:20:50.295Z,46321.88
2018-10-11T22:22:55.267Z,46316.07
2018-10-11T22:25:00.358Z,46323.81
2018-10-11T22:27:05.195Z,46332.52
2018-10-11T22:29:10.335Z,46312.20
2018-10-11T22:31:15.168Z,46305.43
2018-10-11T22:33:20.282Z,46333.49
2018-10-11T22:35:25.226Z,46319.94
2018-10-11T22:37:29.990Z,46315.11
2018-10-11T22:39:34.829Z,46317.04
2018-10-11T22:41:40.839Z,46318.97
2018-10-11T22:43:45.660Z,46308.33
2018-10-11T22:45:50.600Z,46319.94
2018-10-11T22:47:56.943Z,46327.68
2018-10-11T22:50:01.658Z,46331.55
2018-10-11T22:52:06.459Z,46317.04
2018-10-11T22:54:11.718Z,46328.65
2018-10-11T22:56:20.806Z,46288.01
2018-10-11T22:58:25.631Z,46313.17
2018-10-11T23:00:30.464Z,46310.27
2018-10-11T23:02:35.289Z,46322.85
2018-10-11T23:04:40.111Z,46312.20
2018-10-11T23:06:44.935Z,46318.97
2018-10-11T23:08:49.597Z,46303.49
2018-10-11T23:10:54.452Z,46335.43
2018-10-11T23:12:59.148Z,46318.97
2018-10-11T23:15:03.950Z,46328.65
2018-10-11T23:17:08.705Z,46305.43
2018-10-11T23:19:13.527Z,46327.68
2018-10-11T23:21:18.253Z,46309.30
2018-10-11T23:23:23.043Z,46311.23
2018-10-11T23:25:27.813Z,46306.39
2018-10-11T23:27:32.542Z,46320.91
2018-10-11T23:29:37.441Z,46312.20
2018-10-11T23:31:42.251Z,46316.07
2018-10-11T23:33:47.028Z,46312.20
2018-10-11T23:35:51.840Z,46325.75
2018-10-11T23:37:56.771Z,46313.17
2018-10-11T23:40:01.660Z,46313.17
2018-10-11T23:42:06.418Z,46327.68
2018-10-11T23:44:12.264Z,46318.97
2018-10-11T23:46:17.001Z,46318.97
2018-10-11T23:48:22.195Z,46294.78
2018-10-11T23:50:27.331Z,46311.23
2018-10-11T23:52:32.089Z,46308.33
2018-10-11T23:54:36.825Z,46300.59
2018-10-11T23:56:41.575Z,46290.91
2018-10-11T23:58:46.373Z,46312.20
